Time,TemperatureF,DewpointF,PressureIn,WindDirection,WindDirectionDegrees,WindSpeedMPH,WindSpeedGustMPH,Humidity,HourlyPrecipIn,Conditions,Clouds,dailyrainin,SoftwareType,DateUTC
2013-06-21 00:00:00,63.4,60.7,29.87,SE,135,2.0,5.0,91,0.00,,---,0.00,VWS V14.01,2013-06-21 07:00:00,
2013-06-21 00:30:00,63.0,60.3,29.87,SE,135,1.0,4.0,91,0.00,,---,0.00,VWS V14.01,2013-06-21 07:30:00,
2013-06-21 01:00:00,63.3,61.5,29.87,SE,135,2.0,6.0,94,0.00,,---,0.00,VWS V14.01,2013-06-21 08:00:00,
2013-06-21 01:30:00,63.3,61.5,29.86,SE,135,2.0,5.0,94,0.00,,---,0.00,VWS V14.01,2013-06-21 08:30:00,
2013-06-21 02:00:00,62.6,60.8,29.86,SE,135,2.0,7.0,94,0.00,,---,0.00,VWS V14.01,2013-06-21 09:00:00,
2013-06-21 02:30:00,61.9,60.2,29.86,SE,135,1.0,4.0,94,0.00,,---,0.00,VWS V14.01,2013-06-21 09:30:00,
2013-06-21 03:00:00,61.1,59.4,29.86,SE,135,0.0,2.0,94,0.00,,---,0.00,VWS V14.01,2013-06-21 10:00:00,
2013-06-21 03:30:00,60.1,58.4,29.86,SE,135,0.0,2.0,94,0.00,,---,0.00,VWS V14.01,2013-06-21 10:30:00,
2013-06-21 04:00:00,59.9,58.8,29.86,SE,135,1.0,3.0,96,0.00,,---,0.00,VWS V14.01,2013-06-21 11:00:00,
2013-06-21 04:30:00,60.0,59.2,29.86,SE,135,2.0,4.0,97,0.00,,---,0.00,VWS V14.01,2013-06-21 11:30:00,
2013-06-21 05:00:00,59.7,58.6,29.86,SE,135,1.0,3.0,96,0.00,,---,0.00,VWS V14.01,2013-06-21 12:00:00,
2013-06-21 05:30:00,59.6,58.5,29.87,SE,135,1.0,4.0,96,0.00,,---,0.00,VWS V14.01,2013-06-21 12:30:00,
2013-06-21 06:00:00,59.5,58.7,29.88,SE,135,2.0,5.0,97,0.00,,---,0.00,VWS V14.01,2013-06-21 13:00:00,
2013-06-21 06:30:00,60.7,60.1,29.88,SE,135,2.0,5.0,98,0.00,,---,0.00,VWS V14.01,2013-06-21 13:30:00,
2013-06-21 07:00:00,61.8,60.9,29.90,SE,135,1.0,2.0,97,0.00,,---,0.00,VWS V14.01,2013-06-21 14:00:00,
2013-06-21 07:30:00,62.9,61.8,29.91,SE,135,1.0,7.0,96,0.00,,---,0.00,VWS V14.01,2013-06-21 14:30:00,
2013-06-21 08:00:00,64.7,62.3,29.92,SE,135,3.0,8.0,92,0.00,,---,0.00,VWS V14.01,2013-06-21 15:00:00,
2013-06-21 08:30:00,67.0,62.3,29.92,ESE,112,3.0,7.0,85,0.00,,---,0.00,VWS V14.01,2013-06-21 15:30:00,
2013-06-21 09:00:00,69.5,63.1,29.92,ESE,112,2.0,7.0,80,0.00,,---,0.00,VWS V14.01,2013-06-21 16:00:00,
2013-06-21 09:30:00,72.2,63.1,29.92,SSE,158,3.0,10.0,73,0.00,,---,0.00,VWS V14.01,2013-06-21 16:30:00,
2013-06-21 10:00:00,73.0,63.5,29.92,SSE,158,4.0,11.0,72,0.00,,---,0.00,VWS V14.01,2013-06-21 17:00:00,
2013-06-21 10:30:00,73.2,63.2,29.93,South,180,6.0,13.0,71,0.00,,---,0.00,VWS V14.01,2013-06-21 17:30:00,
2013-06-21 11:00:00,72.8,63.3,29.94,South,180,7.0,15.0,72,0.00,,---,0.00,VWS V14.01,2013-06-21 18:00:00,
2013-06-21 11:30:00,72.6,63.1,29.94,SSW,202,7.0,16.0,72,0.00,,---,0.00,VWS V14.01,2013-06-21 18:30:00,
2013-06-21 12:00:00,72.6,63.1,29.93,South,180,8.0,14.0,72,0.00,,---,0.00,VWS V14.01,2013-06-21 19:00:00,
2013-06-21 12:30:00,72.5,63.0,29.93,South,180,8.0,15.0,72,0.00,,---,0.00,VWS V14.01,2013-06-21 19:30:00,
2013-06-21 13:00:00,73.1,63.5,29.93,South,180,6.0,14.0,72,0.00,,---,0.00,VWS V14.01,2013-06-21 20:00:00,
2013-06-21 13:30:00,73.0,63.0,29.92,South,180,8.0,15.0,71,0.00,,---,0.00,VWS V14.01,2013-06-21 20:30:00,
2013-06-21 14:00:00,74.0,63.6,29.92,SSW,202,7.0,14.0,70,0.00,,---,0.00,VWS V14.01,2013-06-21 21:00:00,
2013-06-21 14:30:00,72.6,62.7,29.91,South,180,8.0,16.0,71,0.00,,---,0.00,VWS V14.01,2013-06-21 21:30:00,
2013-06-21 15:00:00,72.6,63.5,29.90,South,180,8.0,16.0,73,0.00,,---,0.00,VWS V14.01,2013-06-21 22:00:00,
2013-06-21 15:30:00,72.8,62.5,29.90,South,180,8.0,14.0,70,0.00,,---,0.00,VWS V14.01,2013-06-21 22:30:00,
2013-06-21 16:00:00,72.6,63.5,29.90,South,180,8.0,16.0,73,0.00,,---,0.00,VWS V14.01,2013-06-21 23:00:00,
2013-06-21 16:28:00,73.8,64.2,29.89,SSE,166,9.0,14.0,72,0.00,,---,0.00,VWS V14.01,2013-06-21 23:28:00,
2013-06-21 16:30:00,72.8,62.5,29.90,South,180,8.0,14.0,70,0.00,,---,0.00,VWS V14.01,2013-06-21 23:30:00,
2013-06-21 16:58:00,71.9,64.3,29.88,SSW,206,5.0,15.0,77,0.00,,---,0.00,VWS V14.01,2013-06-21 23:58:00,
2013-06-21 17:00:00,71.9,64.3,29.88,SSW,206,5.0,15.0,77,0.00,,---,0.00,VWS V14.01,2013-06-22 00:00:00,
2013-06-21 17:28:00,70.8,63.6,29.87,SSW,204,7.0,15.0,78,0.00,,---,0.00,VWS V14.01,2013-06-22 00:28:00,
2013-06-21 17:30:00,73.8,64.2,29.89,SSE,166,9.0,14.0,72,0.00,,---,0.00,VWS V14.01,2013-06-22 00:30:00,
2013-06-21 17:58:00,70.3,63.1,29.87,South,189,9.0,15.0,78,0.00,,---,0.00,VWS V14.01,2013-06-22 00:58:00,
2013-06-21 18:00:00,71.9,64.3,29.88,SSW,206,5.0,15.0,77,0.00,,---,0.00,VWS V14.01,2013-06-22 01:00:00,
2013-06-21 18:28:00,70.3,62.0,29.86,South,185,4.0,15.0,75,0.00,,---,0.00,VWS V14.01,2013-06-22 01:28:00,
2013-06-21 18:30:00,70.8,63.6,29.87,SSW,204,7.0,15.0,78,0.00,,---,0.00,VWS V14.01,2013-06-22 01:30:00,
2013-06-21 18:58:00,69.3,62.2,29.86,South,175,8.0,15.0,78,0.00,,---,0.00,VWS V14.01,2013-06-22 01:58:00,
2013-06-21 19:00:00,70.3,63.1,29.87,South,189,9.0,15.0,78,0.00,,---,0.00,VWS V14.01,2013-06-22 02:00:00,
2013-06-21 19:28:00,68.3,62.2,29.86,South,175,9.0,14.0,81,0.00,,---,0.00,VWS V14.01,2013-06-22 02:28:00,
2013-06-21 19:30:00,70.3,62.0,29.86,South,185,4.0,15.0,75,0.00,,---,0.00,VWS V14.01,2013-06-22 02:30:00,
2013-06-21 19:58:00,67.6,61.6,29.86,SSE,163,4.0,12.0,81,0.00,,---,0.00,VWS V14.01,2013-06-22 02:58:00,
2013-06-21 20:00:00,69.3,62.2,29.86,South,175,8.0,15.0,78,0.00,,---,0.00,VWS V14.01,2013-06-22 03:00:00,
2013-06-21 20:28:00,66.6,60.9,29.86,SSE,162,4.0,9.0,82,0.00,,---,0.00,VWS V14.01,2013-06-22 03:28:00,
2013-06-21 20:30:00,68.3,62.2,29.86,South,175,9.0,14.0,81,0.00,,---,0.00,VWS V14.01,2013-06-22 03:30:00,
2013-06-21 20:58:00,66.1,60.1,29.87,SSE,165,4.0,8.0,81,0.00,,---,0.00,VWS V14.01,2013-06-22 03:58:00,
2013-06-21 21:00:00,67.6,61.6,29.86,SSE,163,4.0,12.0,81,0.00,,---,0.00,VWS V14.01,2013-06-22 04:00:00,
2013-06-21 21:28:00,66.1,60.5,29.88,South,169,3.0,8.0,82,0.00,,---,0.00,VWS V14.01,2013-06-22 04:28:00,
2013-06-21 21:30:00,66.6,60.9,29.86,SSE,162,4.0,9.0,82,0.00,,---,0.00,VWS V14.01,2013-06-22 04:30:00,
2013-06-21 21:58:00,65.9,61.3,29.88,South,170,0.0,7.0,85,0.00,,---,0.00,VWS V14.01,2013-06-22 04:58:00,
2013-06-21 22:00:00,66.1,60.1,29.87,SSE,165,4.0,8.0,81,0.00,,---,0.00,VWS V14.01,2013-06-22 05:00:00,
2013-06-21 22:30:00,66.1,60.5,29.88,South,169,3.0,8.0,82,0.00,,---,0.00,VWS V14.01,2013-06-22 05:30:00,
2013-06-21 23:00:00,65.9,61.3,29.88,South,170,0.0,7.0,85,0.00,,---,0.00,VWS V14.01,2013-06-22 06:00:00,